Time;durP1;ratioP1;P1;durP2;ratioP2;P2;SDS_P1;SDS_P2;PMS_P1;PMS_P2;Temp;Humidity;BMP_temperature;BMP_pressure;BME280_temperature;BME280_humidity;BME280_pressure;Samples;Min_cycle;Max_cycle;Signal;HPM_P1;HPM_P2
2022/03/25 00:02:42;;;;;;;;;;;;;;;23.41;38.38;101211.91;20723385;27;98432;-80
2022/03/25 00:12:43;;;;;;;;;;;;;;;23.39;38.65;101214.69;20723960;27;97102;-80
2022/03/25 00:22:43;;;;;;;;;;;;;;;23.36;38.74;101201.69;20725840;27;97225;-81
2022/03/25 00:32:44;;;;;;;;;;;;;;;23.29;38.50;101205.72;20725900;27;97904;-80
2022/03/25 00:42:47;;;;;;;;;;;;;;;23.26;38.36;101205.97;20711989;27;98545;-80
2022/03/25 00:52:48;;;;;;;;;;;;;;;23.21;38.00;101211.59;20715184;27;97372;-80
2022/03/25 01:02:48;;;;;;;;;;;;;;;23.20;38.72;101204.59;20729332;27;97128;-81
2022/03/25 01:12:49;;;;;;;;;;;;;;;23.22;38.74;101204.50;20735642;27;97012;-80
2022/03/25 01:22:49;;;;;;;;;;;;;;;23.20;38.50;101203.78;20723646;27;98592;-80
2022/03/25 01:32:50;;;;;;;;;;;;;;;23.18;38.79;101210.00;20727467;27;101106;-80
2022/03/25 01:42:50;;;;;;;;;;;;;;;23.13;38.63;101212.13;20726838;27;102272;-80
2022/03/25 01:52:51;;;;;;;;;;;;;;;23.14;38.60;101223.53;20724868;27;97025;-80
2022/03/25 02:02:51;;;;;;;;;;;;;;;23.10;38.64;101227.34;20725435;27;97041;-80
2022/03/25 02:12:52;;;;;;;;;;;;;;;23.07;38.67;101225.78;20731605;27;97019;-81
2022/03/25 02:22:52;;;;;;;;;;;;;;;23.05;38.56;101226.84;20737558;27;97062;-81
2022/03/25 02:32:53;;;;;;;;;;;;;;;23.05;38.62;101240.06;20734251;27;97503;-81
2022/03/25 02:42:53;;;;;;;;;;;;;;;23.05;38.89;101247.97;20737278;27;96928;-80
2022/03/25 02:52:55;;;;;;;;;;;;;;;23.01;38.69;101261.38;20734317;27;101079;-82
2022/03/25 03:02:55;;;;;;;;;;;;;;;22.99;38.84;101268.56;20732206;27;99110;-80
2022/03/25 03:12:56;;;;;;;;;;;;;;;22.97;38.58;101267.00;20734938;27;97321;-80
2022/03/25 03:22:58;;;;;;;;;;;;;;;22.95;38.88;101275.03;20730931;27;96842;-80
2022/03/25 03:32:58;;;;;;;;;;;;;;;22.93;38.91;101273.47;20728472;27;96876;-80
2022/03/25 03:42:59;;;;;;;;;;;;;;;22.91;39.01;101272.72;20724229;27;97741;-80
2022/03/25 03:52:59;;;;;;;;;;;;;;;22.87;39.09;101282.66;20710943;27;97569;-79
2022/03/25 04:03:00;;;;;;;;;;;;;;;22.85;39.16;101269.56;20714054;27;97546;-79
2022/03/25 04:13:05;;;;;;;;;;;;;;;22.84;39.01;101265.22;20714974;27;97557;-79
2022/03/25 04:23:07;;;;;;;;;;;;;;;22.80;38.88;101266.41;20711664;27;101030;-79
2022/03/25 04:33:07;;;;;;;;;;;;;;;22.79;38.88;101263.84;20718098;27;97117;-79
2022/03/25 04:43:08;;;;;;;;;;;;;;;22.75;39.17;101280.88;20715700;27;97675;-80
2022/03/25 04:53:08;;;;;;;;;;;;;;;22.72;39.17;101284.56;20710807;27;100282;-80
2022/03/25 05:03:10;;;;;;;;;;;;;;;22.70;38.69;101294.41;20714449;27;96827;-79
2022/03/25 05:13:14;;;;;;;;;;;;;;;22.73;39.51;101312.69;20726452;27;101578;-80
2022/03/25 05:23:15;;;;;;;;;;;;;;;22.75;39.04;101307.28;20718848;27;97591;-78
2022/03/25 05:33:16;;;;;;;;;;;;;;;22.77;39.51;101300.94;20708612;27;96969;-78
2022/03/25 05:43:16;;;;;;;;;;;;;;;22.78;39.40;101309.72;20706921;27;98233;-76
2022/03/25 05:53:16;;;;;;;;;;;;;;;22.81;39.42;101314.78;20709946;27;100748;-80
2022/03/25 06:03:17;;;;;;;;;;;;;;;22.65;35.85;101320.28;20717517;27;96916;-77
2022/03/25 06:13:18;;;;;;;;;;;;;;;22.15;30.47;101320.91;20711067;27;97816;-80
2022/03/25 06:23:18;;;;;;;;;;;;;;;21.46;27.84;101322.75;20711896;27;98830;-77
2022/03/25 06:33:18;;;;;;;;;;;;;;;21.89;29.35;101322.66;20705513;27;97184;-76
2022/03/25 06:43:19;;;;;;;;;;;;;;;22.13;32.65;101324.63;20710321;27;97099;-75
2022/03/25 06:53:19;;;;;;;;;;;;;;;22.26;34.33;101328.13;20719656;27;97255;-75
2022/03/25 07:03:20;;;;;;;;;;;;;;;22.35;35.48;101332.78;20730581;27;97023;-75
2022/03/25 07:13:20;;;;;;;;;;;;;;;22.45;36.24;101340.09;20739982;27;96705;-76
2022/03/25 07:23:22;;;;;;;;;;;;;;;22.47;36.37;101340.84;20736816;27;97874;-76
2022/03/25 07:33:22;;;;;;;;;;;;;;;22.51;36.79;101358.19;20727655;27;98517;-73
2022/03/25 07:43:23;;;;;;;;;;;;;;;22.56;37.35;101361.34;20731545;27;97429;-73
2022/03/25 07:53:23;;;;;;;;;;;;;;;22.59;37.37;101374.31;20737997;27;97533;-73
2022/03/25 08:03:24;;;;;;;;;;;;;;;22.61;37.60;101369.78;20733651;27;97671;-76
2022/03/25 08:13:24;;;;;;;;;;;;;;;22.60;37.60;101360.19;20732139;27;97277;-73
2022/03/25 08:33:44;;;;;;;;;;;;;;;22.64;38.17;101348.47;20731565;27;97175;-73
2022/03/25 08:43:47;;;;;;;;;;;;;;;22.67;37.92;101356.19;20736683;27;97850;-74
2022/03/25 08:53:47;;;;;;;;;;;;;;;22.69;37.70;101351.66;20725985;27;97127;-73
2022/03/25 09:03:48;;;;;;;;;;;;;;;22.74;37.30;101342.56;20734669;27;97813;-75
2022/03/25 09:13:48;;;;;;;;;;;;;;;22.74;37.84;101346.06;20703946;27;98515;-76
2022/03/25 09:23:49;;;;;;;;;;;;;;;22.75;37.91;101345.06;20728428;27;97581;-76
2022/03/25 09:33:49;;;;;;;;;;;;;;;22.79;37.93;101336.00;20727336;27;97253;-76
2022/03/25 09:43:49;;;;;;;;;;;;;;;22.81;38.18;101333.25;20728065;27;97387;-75
2022/03/25 09:53:52;;;;;;;;;;;;;;;22.86;38.50;101321.44;20728502;27;101004;-76
2022/03/25 10:03:53;;;;;;;;;;;;;;;22.90;38.68;101308.84;20718404;27;98361;-75
2022/03/25 10:14:18;;;;;;;;;;;;;;;22.95;38.54;101290.88;20691294;27;97957;-75
2022/03/25 10:24:39;;;;;;;;;;;;;;;22.99;38.40;101278.31;20697707;27;97600;-74
2022/03/25 10:34:41;;;;;;;;;;;;;;;23.01;38.43;101271.97;20713244;27;97703;-74
2022/03/25 10:44:43;;;;;;;;;;;;;;;23.08;38.38;101253.03;20719336;27;99737;-75
2022/03/25 10:54:43;;;;;;;;;;;;;;;23.18;38.89;101244.34;20725889;27;97186;-76
2022/03/25 11:04:45;;;;;;;;;;;;;;;23.25;38.59;101244.75;20733965;27;97645;-76
2022/03/25 11:14:45;;;;;;;;;;;;;;;23.32;38.82;101232.78;20728182;27;97340;-75
2022/03/25 11:24:55;;;;;;;;;;;;;;;23.40;38.90;101223.44;20738301;27;97201;-75
2022/03/25 11:34:55;;;;;;;;;;;;;;;23.47;38.71;101219.38;20730894;27;98671;-76
2022/03/25 11:45:33;;;;;;;;;;;;;;;23.56;38.77;101202.00;20723235;27;100678;-76
2022/03/25 11:55:53;;;;;;;;;;;;;;;23.66;32.01;101200.34;20721179;27;97385;-76
2022/03/25 12:06:01;;;;;;;;;;;;;;;23.55;29.82;101187.94;20721373;27;99045;-75
2022/03/25 12:16:01;;;;;;;;;;;;;;;23.56;28.49;101179.06;20725511;27;100824;-77
2022/03/25 12:26:02;;;;;;;;;;;;;;;23.58;30.09;101174.50;20729839;27;100605;-78
2022/03/25 12:36:04;;;;;;;;;;;;;;;23.55;27.12;101161.50;20728853;27;96989;-77
2022/03/25 12:46:09;;;;;;;;;;;;;;;23.60;30.15;101146.13;20730385;27;97256;-77
2022/03/25 12:56:11;;;;;;;;;;;;;;;23.66;28.67;101147.47;20722104;27;102001;-77
2022/03/25 13:06:13;;;;;;;;;;;;;;;23.67;27.26;101139.44;20731057;27;97801;-77
2022/03/25 13:16:14;;;;;;;;;;;;;;;23.75;30.19;101120.31;20729830;27;98116;-78
2022/03/25 13:26:15;;;;;;;;;;;;;;;23.74;25.63;101117.81;20719360;27;97101;-78
2022/03/25 13:36:23;;;;;;;;;;;;;;;23.80;26.23;101119.97;20713137;27;102124;-77
2022/03/25 13:46:25;;;;;;;;;;;;;;;23.99;27.37;101111.50;20706215;27;97339;-77
2022/03/25 13:56:25;;;;;;;;;;;;;;;24.04;26.14;101103.19;20717922;27;96994;-77
2022/03/25 14:06:31;;;;;;;;;;;;;;;24.12;26.34;101106.06;20738198;27;97020;-77
2022/03/25 14:16:32;;;;;;;;;;;;;;;24.16;22.45;101096.94;20730513;27;97584;-77
2022/03/25 14:26:33;;;;;;;;;;;;;;;24.22;26.17;101088.50;20757265;27;97284;-77
2022/03/25 14:36:33;;;;;;;;;;;;;;;24.25;23.79;101084.78;20722362;27;97267;-77
2022/03/25 14:46:38;;;;;;;;;;;;;;;24.24;23.67;101083.94;20725591;27;98728;-77
2022/03/25 14:56:39;;;;;;;;;;;;;;;24.31;22.72;101073.69;20721036;27;97648;-76
2022/03/25 15:06:39;;;;;;;;;;;;;;;24.25;22.06;101075.00;20721462;27;101856;-73
2022/03/25 15:16:40;;;;;;;;;;;;;;;24.25;25.74;101068.91;20730689;27;97965;-74
2022/03/25 15:26:40;;;;;;;;;;;;;;;24.22;27.47;101071.81;20725850;27;98672;-75
2022/03/25 15:36:41;;;;;;;;;;;;;;;24.17;28.43;101069.53;20740439;27;96937;-75
2022/03/25 15:46:42;;;;;;;;;;;;;;;24.16;29.02;101074.91;20734501;27;97090;-76
2022/03/25 15:56:42;;;;;;;;;;;;;;;24.13;28.69;101082.16;20732676;27;102286;-76
2022/03/25 16:06:43;;;;;;;;;;;;;;;24.13;26.61;101076.00;20740544;27;97350;-76
2022/03/25 16:16:43;;;;;;;;;;;;;;;24.07;27.23;101084.41;20738114;27;96986;-75
2022/03/25 16:26:44;;;;;;;;;;;;;;;24.00;25.63;101089.38;20743677;27;97374;-75
2022/03/25 16:36:44;;;;;;;;;;;;;;;23.96;25.51;101087.91;20718826;27;97965;-76
2022/03/25 16:46:45;;;;;;;;;;;;;;;23.83;22.83;101086.19;20727011;27;97340;-75
2022/03/25 16:56:46;;;;;;;;;;;;;;;23.48;23.44;101099.50;20703221;27;99964;-76
2022/03/25 17:06:46;;;;;;;;;;;;;;;23.62;26.29;101098.41;20705970;27;98984;-76
2022/03/25 17:16:50;;;;;;;;;;;;;;;23.79;27.34;101113.84;20723812;27;97467;-75
2022/03/25 17:26:51;;;;;;;;;;;;;;;23.89;29.16;101124.56;20730382;27;100465;-75
2022/03/25 17:36:52;;;;;;;;;;;;;;;23.94;30.24;101135.66;20724052;27;97564;-75
2022/03/25 17:46:52;;;;;;;;;;;;;;;23.95;30.01;101139.97;20727884;27;99848;-75
2022/03/25 17:56:53;;;;;;;;;;;;;;;24.05;31.73;101150.69;20711287;27;97507;-78
2022/03/25 18:06:54;;;;;;;;;;;;;;;24.04;32.09;101156.09;20717397;27;97765;-77
2022/03/25 18:16:56;;;;;;;;;;;;;;;24.17;31.29;101162.13;20711131;27;97245;-77
2022/03/25 18:26:59;;;;;;;;;;;;;;;24.19;33.54;101178.72;20715858;27;96969;-77
2022/03/25 18:37:01;;;;;;;;;;;;;;;24.24;33.37;101176.56;20728007;27;96858;-77
2022/03/25 18:47:04;;;;;;;;;;;;;;;24.25;34.43;101180.88;20718137;27;99062;-77
2022/03/25 18:57:05;;;;;;;;;;;;;;;24.23;35.07;101196.06;20711830;27;96913;-78
2022/03/25 19:07:05;;;;;;;;;;;;;;;24.24;34.59;101199.53;20720667;27;97386;-78
2022/03/25 19:17:06;;;;;;;;;;;;;;;24.26;35.25;101197.63;20711658;27;99207;-77
2022/03/25 19:27:06;;;;;;;;;;;;;;;24.26;35.91;101216.97;20659211;27;97961;-78
2022/03/25 19:37:07;;;;;;;;;;;;;;;24.23;36.29;101211.06;20653101;27;97945;-77
2022/03/25 19:47:09;;;;;;;;;;;;;;;24.29;36.08;101207.94;20643828;27;97041;-77
2022/03/25 19:57:10;;;;;;;;;;;;;;;24.26;36.10;101213.50;20639364;27;97937;-77
2022/03/25 20:07:11;;;;;;;;;;;;;;;24.26;35.93;101219.63;20610232;27;98675;-78
2022/03/25 20:17:12;;;;;;;;;;;;;;;24.30;36.15;101228.16;20630212;27;99148;-78
2022/03/25 20:27:13;;;;;;;;;;;;;;;24.20;36.43;101233.31;20609892;27;101643;-77
2022/03/25 20:37:14;;;;;;;;;;;;;;;24.12;36.63;101243.66;20593283;27;99031;-77
2022/03/25 20:47:16;;;;;;;;;;;;;;;24.00;36.96;101248.09;20615782;27;99857;-77
2022/03/25 20:57:16;;;;;;;;;;;;;;;23.95;37.07;101256.38;20623710;27;98510;-77
2022/03/25 21:07:17;;;;;;;;;;;;;;;23.88;37.13;101264.88;20613585;28;97599;-77
2022/03/25 21:17:17;;;;;;;;;;;;;;;23.83;37.55;101266.03;20628137;27;99991;-77
2022/03/25 21:27:18;;;;;;;;;;;;;;;23.81;37.25;101282.97;20634446;27;96970;-77
2022/03/25 21:37:18;;;;;;;;;;;;;;;23.76;37.71;101287.78;20623039;27;98421;-77
2022/03/25 21:47:18;;;;;;;;;;;;;;;23.71;37.66;101293.41;20618078;27;97352;-79
2022/03/25 21:57:20;;;;;;;;;;;;;;;23.67;37.94;101300.72;20599514;27;97806;-77
2022/03/25 22:07:21;;;;;;;;;;;;;;;23.65;38.27;101302.63;20602690;27;97564;-78
2022/03/25 22:17:21;;;;;;;;;;;;;;;23.62;38.09;101313.44;20602043;28;96970;-78
2022/03/25 22:27:22;;;;;;;;;;;;;;;23.60;38.35;101317.97;20608685;27;96971;-77
2022/03/25 22:37:22;;;;;;;;;;;;;;;23.55;38.36;101325.41;20630838;27;97432;-78
2022/03/25 22:47:23;;;;;;;;;;;;;;;23.54;38.49;101330.81;20672055;27;98566;-76
2022/03/25 22:57:23;;;;;;;;;;;;;;;23.49;38.32;101339.06;20710305;27;100903;-76
2022/03/25 23:07:24;;;;;;;;;;;;;;;23.48;38.40;101350.59;20720147;27;97921;-76
2022/03/25 23:17:24;;;;;;;;;;;;;;;23.46;38.57;101365.72;20719492;27;97247;-76
2022/03/25 23:27:25;;;;;;;;;;;;;;;23.43;38.50;101369.44;20718320;27;100388;-77
2022/03/25 23:37:25;;;;;;;;;;;;;;;23.40;38.88;101369.66;20711337;27;100101;-76
2022/03/25 23:47:26;;;;;;;;;;;;;;;23.38;38.45;101365.44;20710147;27;100531;-77
2022/03/25 23:57:26;;;;;;;;;;;;;;;23.38;38.49;101382.13;20710947;27;98753;-77
